Time;durP1;ratioP1;P1;durP2;ratioP2;P2;SDS_P1;SDS_P2;PMS_P1;PMS_P2;Temp;Humidity;BMP_temperature;BMP_pressure;BME280_temperature;BME280_humidity;BME280_pressure;Samples;Min_cycle;Max_cycle;Signal;HPM_P1;HPM_P2
2022/12/30 00:00:12;;;;;;;11.50;3.57;;;;;;;;;;5014183;28;20231;-50
2022/12/30 00:02:38;;;;;;;11.17;3.43;;;;;;;;;;5014000;28;20205;-49
2022/12/30 00:05:05;;;;;;;11.17;2.77;;;;;;;;;;5014172;28;20198;-49
2022/12/30 00:07:34;;;;;;;11.07;3.30;;;;;;;;;;5013897;28;20241;-48
2022/12/30 00:10:00;;;;;;;9.97;3.63;;;;;;;;;;5014242;28;20694;-49
2022/12/30 00:34:49;;;;;;;13.53;3.40;;;;;;;;;;5013674;28;20228;-50
2022/12/30 00:37:15;;;;;;;9.17;3.43;;;;;;;;;;5013608;28;20198;-48
2022/12/30 00:39:42;;;;;;;11.13;3.13;;;;;;;;;;5013336;28;20603;-50
2022/12/30 00:44:53;;;;;;;10.20;3.17;;;;;;;;;;5013662;28;20252;-48
2022/12/30 00:56:09;;;;;;;10.83;3.43;;;;;;;;;;4971897;28;20768;-50
2022/12/30 00:58:35;;;;;;;8.40;3.13;;;;;;;;;;4991281;28;20672;-48
2022/12/30 01:01:01;;;;;;;8.90;3.37;;;;;;;;;;5012948;28;20204;-49
2022/12/30 01:03:27;;;;;;;10.10;3.00;;;;;;;;;;5012488;28;20197;-49
2022/12/30 01:05:53;;;;;;;10.87;3.30;;;;;;;;;;5012854;28;20219;-50
2022/12/30 01:08:19;;;;;;;12.63;3.60;;;;;;;;;;5012598;28;20727;-49
2022/12/30 01:10:45;;;;;;;11.73;2.93;;;;;;;;;;5012408;28;20205;-49
2022/12/30 01:13:12;;;;;;;13.00;3.47;;;;;;;;;;5012673;28;20579;-49
2022/12/30 01:15:41;;;;;;;10.63;3.30;;;;;;;;;;5010322;28;20336;-50
2022/12/30 01:18:07;;;;;;;11.80;3.43;;;;;;;;;;5011002;28;20197;-47
2022/12/30 01:20:35;;;;;;;8.50;3.03;;;;;;;;;;5012355;28;20225;-48
2022/12/30 01:23:01;;;;;;;12.00;3.17;;;;;;;;;;5012662;28;20290;-48
2022/12/30 01:25:27;;;;;;;10.90;3.07;;;;;;;;;;5012502;28;20277;-49
2022/12/30 01:27:53;;;;;;;12.37;2.93;;;;;;;;;;5012525;28;20668;-48
2022/12/30 01:30:20;;;;;;;11.70;3.47;;;;;;;;;;5012248;28;20240;-48
2022/12/30 01:32:46;;;;;;;9.07;3.17;;;;;;;;;;5012289;28;20201;-48
2022/12/30 01:35:12;;;;;;;8.50;3.13;;;;;;;;;;5012274;28;20229;-48
2022/12/30 01:37:38;;;;;;;7.50;3.30;;;;;;;;;;5012261;28;20625;-48
2022/12/30 01:40:05;;;;;;;11.60;3.30;;;;;;;;;;5012308;28;20245;-47
2022/12/30 01:42:36;;;;;;;11.40;2.90;;;;;;;;;;5012279;28;20288;-48
2022/12/30 01:45:04;;;;;;;7.13;3.30;;;;;;;;;;5012140;28;20644;-48
2022/12/30 01:47:34;;;;;;;9.53;3.53;;;;;;;;;;5012155;28;20807;-49
2022/12/30 01:50:03;;;;;;;8.23;3.43;;;;;;;;;;5012192;28;20300;-48
2022/12/30 01:52:29;;;;;;;12.33;3.33;;;;;;;;;;5012003;28;20193;-47
2022/12/30 01:55:03;;;;;;;7.37;3.03;;;;;;;;;;5012037;28;20252;-47
2022/12/30 01:57:30;;;;;;;11.83;3.80;;;;;;;;;;5012016;28;20224;-48
2022/12/30 01:59:56;;;;;;;10.33;3.00;;;;;;;;;;5011941;28;20652;-48
2022/12/30 02:02:22;;;;;;;10.27;3.00;;;;;;;;;;5011965;28;20240;-48
2022/12/30 02:04:49;;;;;;;12.23;3.57;;;;;;;;;;5011997;28;20198;-48
2022/12/30 02:07:20;;;;;;;10.53;3.10;;;;;;;;;;5011989;28;20260;-48
2022/12/30 02:09:47;;;;;;;9.93;2.80;;;;;;;;;;5012048;28;20197;-48
2022/12/30 02:12:13;;;;;;;10.87;3.57;;;;;;;;;;5011889;28;20679;-48
2022/12/30 02:14:40;;;;;;;13.47;3.60;;;;;;;;;;5011572;28;20491;-47
2022/12/30 02:17:12;;;;;;;10.13;3.57;;;;;;;;;;5011851;28;20768;-48
2022/12/30 02:19:50;;;;;;;11.17;3.30;;;;;;;;;;5011773;28;20216;-47
2022/12/30 02:22:23;;;;;;;8.50;3.60;;;;;;;;;;5011516;28;20288;-48
2022/12/30 02:25:03;;;;;;;12.03;3.63;;;;;;;;;;5011534;28;20284;-47
2022/12/30 02:27:46;;;;;;;11.77;3.73;;;;;;;;;;5011542;28;20664;-48
2022/12/30 02:30:18;;;;;;;11.80;3.73;;;;;;;;;;5011639;28;20541;-48
2022/12/30 02:32:51;;;;;;;10.00;3.23;;;;;;;;;;5011795;28;20209;-47
2022/12/30 02:35:20;;;;;;;7.10;3.40;;;;;;;;;;5011576;28;20276;-47
2022/12/30 02:37:50;;;;;;;9.97;3.40;;;;;;;;;;5011484;28;20212;-47
2022/12/30 02:40:20;;;;;;;7.83;2.90;;;;;;;;;;5011420;28;20990;-47
2022/12/30 02:45:35;;;;;;;9.30;3.00;;;;;;;;;;5011481;28;20252;-47
2022/12/30 02:48:04;;;;;;;8.43;2.70;;;;;;;;;;5011528;28;20247;-48
2022/12/30 02:53:19;;;;;;;16.00;3.40;;;;;;;;;;5011501;28;20420;-48
2022/12/30 02:55:45;;;;;;;10.80;3.00;;;;;;;;;;5011281;28;20488;-48
2022/12/30 02:58:11;;;;;;;9.13;3.17;;;;;;;;;;5011403;28;20201;-47
2022/12/30 03:03:57;;;;;;;12.60;3.53;;;;;;;;;;5011322;28;20702;-50
2022/12/30 03:06:30;;;;;;;10.40;3.40;;;;;;;;;;5011244;28;20517;-47
2022/12/30 03:08:59;;;;;;;13.47;3.77;;;;;;;;;;5011369;28;20198;-47
2022/12/30 03:11:28;;;;;;;8.03;3.20;;;;;;;;;;5011039;28;20519;-47
2022/12/30 03:13:56;;;;;;;9.97;2.97;;;;;;;;;;5011095;28;20205;-47
2022/12/30 03:16:26;;;;;;;13.43;3.17;;;;;;;;;;5011114;28;20927;-47
2022/12/30 03:18:54;;;;;;;17.37;3.10;;;;;;;;;;5011169;28;20197;-47
2022/12/30 03:21:21;;;;;;;8.60;3.10;;;;;;;;;;5011134;28;20440;-47
2022/12/30 03:29:21;;;;;;;7.53;3.40;;;;;;;;;;5011303;28;20424;-47
2022/12/30 03:31:47;;;;;;;10.83;2.90;;;;;;;;;;5010912;28;20436;-47
2022/12/30 03:34:15;;;;;;;9.23;3.13;;;;;;;;;;5011686;28;20488;-46
2022/12/30 03:36:43;;;;;;;11.10;3.80;;;;;;;;;;5014465;28;20572;-47
2022/12/30 03:39:12;;;;;;;11.43;3.10;;;;;;;;;;5014405;28;20203;-47
2022/12/30 03:41:38;;;;;;;12.23;3.30;;;;;;;;;;5014444;28;20488;-47
2022/12/30 03:44:04;;;;;;;12.53;3.37;;;;;;;;;;5014370;28;20452;-47
2022/12/30 03:46:31;;;;;;;12.77;3.20;;;;;;;;;;5014339;28;20927;-47
2022/12/30 03:48:57;;;;;;;11.20;3.30;;;;;;;;;;5014457;28;20443;-47
2022/12/30 03:51:24;;;;;;;10.60;3.50;;;;;;;;;;5014571;28;20437;-47
2022/12/30 03:53:51;;;;;;;9.77;3.10;;;;;;;;;;5014186;28;20224;-47
2022/12/30 03:56:17;;;;;;;14.40;3.03;;;;;;;;;;5014390;28;20444;-47
2022/12/30 03:58:43;;;;;;;9.17;3.00;;;;;;;;;;5014111;28;20709;-46
2022/12/30 04:01:09;;;;;;;9.43;3.80;;;;;;;;;;5014368;28;20432;-47
2022/12/30 04:03:34;;;;;;;11.50;3.40;;;;;;;;;;5014008;28;20201;-47
2022/12/30 04:06:00;;;;;;;12.77;3.70;;;;;;;;;;5014108;28;20201;-49
2022/12/30 04:08:28;;;;;;;11.30;4.03;;;;;;;;;;5014091;28;20575;-48
2022/12/30 04:10:54;;;;;;;10.03;3.30;;;;;;;;;;5013911;28;20206;-48
2022/12/30 04:13:20;;;;;;;6.57;3.40;;;;;;;;;;5014094;28;20468;-48
2022/12/30 04:15:47;;;;;;;11.60;3.30;;;;;;;;;;5013804;28;20232;-48
2022/12/30 04:18:13;;;;;;;10.43;3.17;;;;;;;;;;5013997;28;20228;-47
2022/12/30 04:20:39;;;;;;;9.93;2.93;;;;;;;;;;5013685;28;20494;-47
2022/12/30 04:23:05;;;;;;;11.57;4.30;;;;;;;;;;5013508;28;20429;-47
2022/12/30 04:25:32;;;;;;;9.90;3.27;;;;;;;;;;5013660;28;20467;-47
2022/12/30 04:27:58;;;;;;;10.10;3.30;;;;;;;;;;5013672;28;20447;-47
2022/12/30 04:30:24;;;;;;;11.43;3.37;;;;;;;;;;5013469;28;21084;-47
2022/12/30 04:32:50;;;;;;;12.20;3.30;;;;;;;;;;5013704;28;20206;-47
2022/12/30 04:35:16;;;;;;;10.87;3.70;;;;;;;;;;5013487;28;20589;-47
2022/12/30 04:37:42;;;;;;;10.43;3.57;;;;;;;;;;5013304;28;20613;-48
2022/12/30 04:40:09;;;;;;;9.13;3.10;;;;;;;;;;5013476;28;20488;-48
2022/12/30 04:42:36;;;;;;;8.17;3.40;;;;;;;;;;5013283;28;20744;-48
2022/12/30 04:45:03;;;;;;;11.03;3.90;;;;;;;;;;5013427;28;20443;-47
2022/12/30 04:47:29;;;;;;;9.77;3.37;;;;;;;;;;5012441;28;20436;-48
2022/12/30 04:49:56;;;;;;;10.07;3.33;;;;;;;;;;5013489;28;20528;-47
2022/12/30 04:52:22;;;;;;;10.47;4.00;;;;;;;;;;5013180;28;20201;-47
2022/12/30 04:54:48;;;;;;;9.47;3.23;;;;;;;;;;5013086;28;20247;-47
2022/12/30 04:57:14;;;;;;;11.13;3.67;;;;;;;;;;5013155;28;20251;-47
2022/12/30 04:59:41;;;;;;;11.00;3.80;;;;;;;;;;5012920;28;20206;-48
2022/12/30 05:02:07;;;;;;;13.63;3.70;;;;;;;;;;5013059;28;20202;-48
2022/12/30 05:04:33;;;;;;;12.87;4.23;;;;;;;;;;5012839;28;20288;-47
2022/12/30 05:06:59;;;;;;;9.63;3.60;;;;;;;;;;5012866;28;20739;-48
2022/12/30 05:09:25;;;;;;;8.67;3.60;;;;;;;;;;5012969;28;20198;-48
2022/12/30 05:11:51;;;;;;;9.50;4.27;;;;;;;;;;5012776;28;20598;-47
2022/12/30 05:14:17;;;;;;;10.43;4.60;;;;;;;;;;5012694;28;20240;-47
2022/12/30 05:16:44;;;;;;;10.53;3.50;;;;;;;;;;5012670;28;20209;-48
2022/12/30 05:19:10;;;;;;;10.50;3.93;;;;;;;;;;5012818;28;20197;-47
2022/12/30 05:21:36;;;;;;;11.63;4.33;;;;;;;;;;5012499;28;20228;-47
2022/12/30 05:26:47;;;;;;;11.57;4.37;;;;;;;;;;5012605;28;20691;-48
2022/12/30 05:29:13;;;;;;;10.67;3.80;;;;;;;;;;5012107;28;20454;-48
2022/12/30 05:31:39;;;;;;;13.97;4.63;;;;;;;;;;5012333;28;20672;-48
2022/12/30 05:34:06;;;;;;;7.90;3.80;;;;;;;;;;5012393;28;20217;-48
2022/12/30 05:36:32;;;;;;;9.07;3.80;;;;;;;;;;5012282;28;20224;-48
2022/12/30 05:38:58;;;;;;;10.83;4.60;;;;;;;;;;5012458;28;20201;-48
2022/12/30 05:41:25;;;;;;;16.03;4.30;;;;;;;;;;5012667;28;20676;-48
2022/12/30 05:43:51;;;;;;;9.87;4.00;;;;;;;;;;5012190;28;20681;-48
2022/12/30 05:46:17;;;;;;;9.33;4.87;;;;;;;;;;5012238;28;20432;-47
2022/12/30 05:48:43;;;;;;;10.87;4.17;;;;;;;;;;5012371;28;20212;-47
2022/12/30 05:51:11;;;;;;;10.47;4.17;;;;;;;;;;5012264;28;20209;-47
2022/12/30 05:53:37;;;;;;;9.07;4.37;;;;;;;;;;5011980;28;20216;-48
2022/12/30 05:56:03;;;;;;;9.00;4.67;;;;;;;;;;5012124;28;20233;-47
2022/12/30 05:58:29;;;;;;;10.20;3.60;;;;;;;;;;5011828;28;20206;-49
2022/12/30 06:00:56;;;;;;;15.00;4.20;;;;;;;;;;5012242;28;20436;-47
2022/12/30 06:03:22;;;;;;;9.60;4.27;;;;;;;;;;5012051;28;20267;-47
2022/12/30 06:05:48;;;;;;;11.13;5.10;;;;;;;;;;5011925;28;20692;-48
2022/12/30 06:08:15;;;;;;;14.47;6.47;;;;;;;;;;5011945;28;20205;-47
2022/12/30 06:10:41;;;;;;;9.13;3.77;;;;;;;;;;5011800;28;20205;-48
2022/12/30 06:13:07;;;;;;;8.57;3.90;;;;;;;;;;5011976;28;20467;-47
2022/12/30 06:15:33;;;;;;;9.60;4.10;;;;;;;;;;5011705;28;20279;-47
2022/12/30 06:17:59;;;;;;;9.63;4.03;;;;;;;;;;5011761;28;20440;-47
2022/12/30 06:20:25;;;;;;;12.30;3.90;;;;;;;;;;5011706;28;20233;-47
2022/12/30 06:22:51;;;;;;;11.70;4.13;;;;;;;;;;5011704;28;20607;-47
2022/12/30 06:25:18;;;;;;;12.10;4.60;;;;;;;;;;5011727;28;20190;-47
2022/12/30 06:27:44;;;;;;;9.90;3.70;;;;;;;;;;5011505;28;20676;-47
2022/12/30 06:30:11;;;;;;;9.97;3.60;;;;;;;;;;5011689;28;20437;-48
2022/12/30 06:32:37;;;;;;;14.93;3.50;;;;;;;;;;5011597;28;20539;-48
2022/12/30 06:35:03;;;;;;;10.30;3.70;;;;;;;;;;5011577;28;20480;-48
2022/12/30 06:37:29;;;;;;;9.57;3.73;;;;;;;;;;5011728;28;20527;-47
2022/12/30 06:39:55;;;;;;;11.93;3.67;;;;;;;;;;5011485;28;20915;-47
2022/12/30 06:42:23;;;;;;;14.57;3.47;;;;;;;;;;5011396;28;20206;-48
2022/12/30 06:44:49;;;;;;;10.70;3.90;;;;;;;;;;5011427;28;20434;-48
2022/12/30 06:47:14;;;;;;;8.67;3.63;;;;;;;;;;5011621;28;20805;-47
2022/12/30 06:49:40;;;;;;;11.07;3.53;;;;;;;;;;5011434;28;20193;-48
2022/12/30 06:52:06;;;;;;;8.67;3.13;;;;;;;;;;5011764;28;20198;-48
2022/12/30 06:54:32;;;;;;;9.63;3.40;;;;;;;;;;5011504;28;20229;-47
2022/12/30 06:56:58;;;;;;;13.60;3.50;;;;;;;;;;5011548;28;20209;-47
2022/12/30 06:59:26;;;;;;;11.97;3.30;;;;;;;;;;5011315;28;20660;-48
2022/12/30 07:01:52;;;;;;;7.40;2.90;;;;;;;;;;5011422;28;20201;-47
2022/12/30 07:04:18;;;;;;;11.77;2.80;;;;;;;;;;5011444;28;21050;-46
2022/12/30 07:06:44;;;;;;;11.00;3.27;;;;;;;;;;5011602;28;20205;-49
2022/12/30 07:09:10;;;;;;;13.37;3.97;;;;;;;;;;5012024;28;20255;-47
2022/12/30 07:11:36;;;;;;;15.37;3.53;;;;;;;;;;5015025;28;20193;-47
2022/12/30 07:14:02;;;;;;;9.10;3.20;;;;;;;;;;5014975;28;20444;-46
2022/12/30 07:16:29;;;;;;;8.93;3.10;;;;;;;;;;5014820;28;20479;-47
2022/12/30 07:18:55;;;;;;;9.63;2.97;;;;;;;;;;5015287;28;20846;-47
2022/12/30 07:21:21;;;;;;;12.80;3.60;;;;;;;;;;5015002;28;20444;-46
2022/12/30 07:23:47;;;;;;;10.57;3.20;;;;;;;;;;5014773;28;20217;-48
2022/12/30 07:26:13;;;;;;;7.83;2.80;;;;;;;;;;5014792;28;20646;-47
2022/12/30 07:28:39;;;;;;;8.50;3.20;;;;;;;;;;5014673;28;20209;-47
2022/12/30 07:31:05;;;;;;;11.47;3.23;;;;;;;;;;5014927;28;20653;-47
2022/12/30 07:33:32;;;;;;;8.77;2.90;;;;;;;;;;5014612;28;20293;-47
2022/12/30 07:35:58;;;;;;;10.60;3.00;;;;;;;;;;5014499;28;20233;-47
2022/12/30 07:38:24;;;;;;;11.43;3.00;;;;;;;;;;5014714;28;20456;-47
2022/12/30 07:40:50;;;;;;;11.70;2.70;;;;;;;;;;5014433;28;20526;-47
2022/12/30 07:43:16;;;;;;;8.40;2.57;;;;;;;;;;5014472;28;20203;-47
2022/12/30 07:45:42;;;;;;;10.33;2.80;;;;;;;;;;5014394;28;20202;-48
2022/12/30 07:48:08;;;;;;;13.57;3.17;;;;;;;;;;5014618;28;20212;-48
2022/12/30 07:50:38;;;;;;;13.10;3.57;;;;;;;;;;5014390;28;20202;-46
2022/12/30 07:53:04;;;;;;;12.60;2.53;;;;;;;;;;5014216;28;20452;-47
2022/12/30 07:55:30;;;;;;;10.30;2.77;;;;;;;;;;5013989;28;21089;-47
2022/12/30 07:57:57;;;;;;;13.50;3.13;;;;;;;;;;5014281;28;20443;-46
2022/12/30 08:00:23;;;;;;;12.20;2.97;;;;;;;;;;5014276;28;20241;-46
2022/12/30 08:02:49;;;;;;;7.40;3.07;;;;;;;;;;5014156;28;20938;-46
2022/12/30 08:05:15;;;;;;;8.23;2.97;;;;;;;;;;5014552;28;20517;-46
2022/12/30 08:07:42;;;;;;;8.50;3.23;;;;;;;;;;5013973;28;20202;-46
2022/12/30 08:10:09;;;;;;;11.27;2.80;;;;;;;;;;5014111;28;20444;-46
2022/12/30 08:12:35;;;;;;;12.27;3.13;;;;;;;;;;5013767;28;20440;-46
2022/12/30 08:15:01;;;;;;;8.47;3.67;;;;;;;;;;5013939;28;20542;-46
2022/12/30 08:17:27;;;;;;;9.27;3.23;;;;;;;;;;5013848;28;20845;-46
2022/12/30 08:19:53;;;;;;;6.40;2.43;;;;;;;;;;5013718;28;20228;-46
2022/12/30 08:22:19;;;;;;;12.67;2.67;;;;;;;;;;5012713;28;20476;-46
2022/12/30 08:24:47;;;;;;;10.93;3.07;;;;;;;;;;5013572;28;20201;-46
2022/12/30 08:27:12;;;;;;;8.83;2.70;;;;;;;;;;5013598;28;20209;-46
2022/12/30 08:29:38;;;;;;;9.73;2.83;;;;;;;;;;5013633;28;20848;-46
2022/12/30 08:32:05;;;;;;;11.67;2.90;;;;;;;;;;5013717;28;20232;-46
2022/12/30 08:34:31;;;;;;;9.77;3.00;;;;;;;;;;5013574;28;20232;-46
2022/12/30 08:36:57;;;;;;;9.30;2.30;;;;;;;;;;5013589;28;20436;-46
2022/12/30 08:39:23;;;;;;;9.93;3.10;;;;;;;;;;5013451;28;21042;-45
2022/12/30 08:41:50;;;;;;;10.23;3.00;;;;;;;;;;5013541;28;20210;-47
2022/12/30 08:44:16;;;;;;;11.67;3.03;;;;;;;;;;5013121;28;20194;-46
2022/12/30 08:46:42;;;;;;;7.37;2.77;;;;;;;;;;5012727;28;20697;-45
2022/12/30 08:49:09;;;;;;;11.30;2.60;;;;;;;;;;5013305;28;20586;-45
2022/12/30 08:51:35;;;;;;;8.27;2.70;;;;;;;;;;5012945;28;20443;-45
2022/12/30 08:54:01;;;;;;;7.27;2.40;;;;;;;;;;5013244;28;20436;-44
2022/12/30 08:56:28;;;;;;;11.00;2.83;;;;;;;;;;5013032;28;20487;-45
2022/12/30 08:58:55;;;;;;;10.43;3.10;;;;;;;;;;5006080;28;20201;-47
2022/12/30 09:01:22;;;;;;;8.97;3.10;;;;;;;;;;5013345;28;20238;-47
2022/12/30 09:03:48;;;;;;;8.10;2.40;;;;;;;;;;5012737;28;20205;-46
2022/12/30 09:06:16;;;;;;;6.43;2.00;;;;;;;;;;5010719;28;20444;-47
2022/12/30 09:08:42;;;;;;;8.43;2.87;;;;;;;;;;5011092;28;20198;-47
2022/12/30 09:11:09;;;;;;;9.30;2.40;;;;;;;;;;5012723;28;20206;-47
2022/12/30 09:13:36;;;;;;;8.70;2.70;;;;;;;;;;5012291;28;20221;-46
2022/12/30 09:16:04;;;;;;;7.50;2.33;;;;;;;;;;5012641;28;20341;-48
2022/12/30 09:18:30;;;;;;;10.83;2.67;;;;;;;;;;5012442;28;20201;-50
2022/12/30 09:20:56;;;;;;;10.20;2.80;;;;;;;;;;5012249;28;20226;-50
2022/12/30 09:23:22;;;;;;;7.90;2.53;;;;;;;;;;5012458;28;20197;-43
2022/12/30 09:25:48;;;;;;;8.07;2.30;;;;;;;;;;5012187;28;21064;-47
2022/12/30 09:28:14;;;;;;;8.37;3.30;;;;;;;;;;5012260;28;20221;-50
2022/12/30 09:30:40;;;;;;;8.10;2.53;;;;;;;;;;5012412;28;20648;-47
2022/12/30 09:33:08;;;;;;;8.77;2.70;;;;;;;;;;5012165;28;20270;-46
2022/12/30 09:35:34;;;;;;;6.40;2.30;;;;;;;;;;5011841;28;20730;-52
2022/12/30 09:38:00;;;;;;;9.20;2.50;;;;;;;;;;5012290;28;20197;-47
2022/12/30 09:40:31;;;;;;;10.87;2.13;;;;;;;;;;5011933;28;20742;-47
2022/12/30 09:43:15;;;;;;;10.47;3.00;;;;;;;;;;5011915;28;20198;-46
2022/12/30 09:45:45;;;;;;;5.63;2.40;;;;;;;;;;5012131;28;20198;-46
2022/12/30 09:48:18;;;;;;;7.00;2.30;;;;;;;;;;5012151;28;20194;-46
2022/12/30 09:50:45;;;;;;;9.87;2.40;;;;;;;;;;5012260;28;20664;-47
2022/12/30 09:53:14;;;;;;;5.17;2.20;;;;;;;;;;5012249;28;20632;-46
2022/12/30 09:55:44;;;;;;;7.97;2.50;;;;;;;;;;5011978;28;20660;-46
2022/12/30 09:58:12;;;;;;;6.13;2.20;;;;;;;;;;5012177;28;20208;-47
2022/12/30 10:00:38;;;;;;;7.57;2.60;;;;;;;;;;5012120;28;20209;-47
2022/12/30 10:03:06;;;;;;;8.47;2.43;;;;;;;;;;5012076;28;20209;-47
2022/12/30 10:05:38;;;;;;;6.67;2.33;;;;;;;;;;5012073;28;20213;-47
2022/12/30 10:08:10;;;;;;;7.67;2.83;;;;;;;;;;5012194;28;20268;-46
2022/12/30 10:10:38;;;;;;;5.87;2.20;;;;;;;;;;5011776;28;20572;-47
2022/12/30 10:13:07;;;;;;;6.70;2.47;;;;;;;;;;5011899;28;20248;-48
2022/12/30 10:15:37;;;;;;;6.47;2.70;;;;;;;;;;5011749;28;20235;-48
2022/12/30 10:18:13;;;;;;;5.50;2.33;;;;;;;;;;5011709;28;20649;-48
2022/12/30 10:20:48;;;;;;;7.43;2.70;;;;;;;;;;5011661;28;20213;-48
2022/12/30 10:23:19;;;;;;;11.30;2.73;;;;;;;;;;5011836;28;20201;-47
2022/12/30 10:25:47;;;;;;;4.47;2.20;;;;;;;;;;5011511;28;20190;-47
2022/12/30 10:28:14;;;;;;;5.70;2.17;;;;;;;;;;5011614;28;20201;-47
2022/12/30 10:30:45;;;;;;;4.63;2.30;;;;;;;;;;5011560;28;20568;-48
2022/12/30 10:33:15;;;;;;;7.53;2.33;;;;;;;;;;5011558;28;20201;-47
2022/12/30 10:35:42;;;;;;;6.37;2.40;;;;;;;;;;5010847;28;20233;-48
2022/12/30 10:38:11;;;;;;;7.03;2.40;;;;;;;;;;5011041;28;20684;-47
2022/12/30 10:40:41;;;;;;;4.07;2.07;;;;;;;;;;5010631;28;20260;-47
2022/12/30 10:43:19;;;;;;;7.63;2.57;;;;;;;;;;5011229;28;20216;-47
2022/12/30 10:45:48;;;;;;;6.73;2.77;;;;;;;;;;5014514;28;20197;-47
2022/12/30 10:48:24;;;;;;;5.23;2.30;;;;;;;;;;5015149;28;20193;-48
2022/12/30 10:50:52;;;;;;;4.83;2.30;;;;;;;;;;5015150;28;20611;-48
2022/12/30 10:53:21;;;;;;;7.70;2.20;;;;;;;;;;5015065;28;20247;-53
2022/12/30 10:55:48;;;;;;;7.23;2.50;;;;;;;;;;5014902;28;20703;-48
2022/12/30 10:58:17;;;;;;;10.37;2.47;;;;;;;;;;5015084;28;20276;-48
2022/12/30 11:00:43;;;;;;;6.40;1.83;;;;;;;;;;5014792;28;20256;-46
2022/12/30 11:03:15;;;;;;;6.83;2.17;;;;;;;;;;5015239;28;20197;-47
2022/12/30 11:05:41;;;;;;;7.60;2.70;;;;;;;;;;5014888;28;20289;-47
2022/12/30 11:08:19;;;;;;;6.63;2.33;;;;;;;;;;5014784;28;20281;-47
2022/12/30 11:10:57;;;;;;;8.27;2.63;;;;;;;;;;5014798;28;20201;-47
2022/12/30 11:16:07;;;;;;;6.60;2.50;;;;;;;;;;5014686;28;20279;-47
2022/12/30 11:18:34;;;;;;;7.47;2.33;;;;;;;;;;5014627;28;20208;-47
2022/12/30 11:21:00;;;;;;;3.93;1.97;;;;;;;;;;5014618;28;20567;-47
2022/12/30 11:23:29;;;;;;;5.70;2.03;;;;;;;;;;5014533;28;20248;-46
2022/12/30 11:25:57;;;;;;;4.83;2.20;;;;;;;;;;5014542;28;20208;-48
2022/12/30 11:28:25;;;;;;;7.10;2.07;;;;;;;;;;5014485;28;20653;-47
2022/12/30 11:31:02;;;;;;;5.10;2.03;;;;;;;;;;5014174;28;20212;-47
2022/12/30 11:33:30;;;;;;;7.10;2.10;;;;;;;;;;5012150;28;20725;-48
2022/12/30 11:36:11;;;;;;;5.60;2.07;;;;;;;;;;5014553;28;20238;-48
2022/12/30 11:38:38;;;;;;;5.57;1.97;;;;;;;;;;5014810;28;20239;-47
2022/12/30 11:41:19;;;;;;;6.03;2.17;;;;;;;;;;5014494;28;20680;-47
2022/12/30 11:44:08;;;;;;;5.03;2.00;;;;;;;;;;5014389;28;20202;-48
2022/12/30 11:46:36;;;;;;;6.13;2.50;;;;;;;;;;5007364;28;20225;-48
2022/12/30 11:49:04;;;;;;;5.47;2.10;;;;;;;;;;5014174;28;20675;-48
2022/12/30 11:51:32;;;;;;;5.10;1.93;;;;;;;;;;5014148;28;20208;-46
2022/12/30 11:54:02;;;;;;;4.50;1.90;;;;;;;;;;5014226;28;20197;-48
2022/12/30 11:56:30;;;;;;;3.67;1.90;;;;;;;;;;5013548;28;20264;-47
2022/12/30 11:58:56;;;;;;;4.20;2.00;;;;;;;;;;5013947;28;20308;-47
2022/12/30 12:01:22;;;;;;;7.30;2.10;;;;;;;;;;5013939;28;20201;-50
2022/12/30 12:03:50;;;;;;;8.50;2.00;;;;;;;;;;5013909;28;20193;-47
2022/12/30 12:06:16;;;;;;;6.43;2.10;;;;;;;;;;5014062;28;20197;-46
2022/12/30 12:08:45;;;;;;;4.90;2.47;;;;;;;;;;5013887;28;20201;-46
2022/12/30 12:11:14;;;;;;;6.07;2.70;;;;;;;;;;5014057;28;20201;-46
2022/12/30 12:13:46;;;;;;;4.43;1.90;;;;;;;;;;5014056;28;20256;-46
2022/12/30 12:16:15;;;;;;;6.67;2.13;;;;;;;;;;5013942;28;20218;-47
2022/12/30 12:18:43;;;;;;;5.97;1.90;;;;;;;;;;5013909;28;20277;-48
2022/12/30 12:21:14;;;;;;;3.77;2.00;;;;;;;;;;5013969;28;20216;-48
2022/12/30 12:23:46;;;;;;;4.63;1.83;;;;;;;;;;5013984;28;20259;-47
2022/12/30 12:26:15;;;;;;;4.53;1.80;;;;;;;;;;5014157;28;20194;-47
2022/12/30 12:28:44;;;;;;;7.60;2.27;;;;;;;;;;5013883;28;20206;-47
2022/12/30 12:31:18;;;;;;;6.40;1.93;;;;;;;;;;5013722;28;20206;-47
2022/12/30 12:33:47;;;;;;;6.40;2.03;;;;;;;;;;5013742;28;20256;-47
2022/12/30 12:36:18;;;;;;;5.50;2.07;;;;;;;;;;5013625;28;20260;-48
2022/12/30 12:38:53;;;;;;;5.00;2.03;;;;;;;;;;5013824;28;20208;-48
2022/12/30 12:41:28;;;;;;;9.83;2.77;;;;;;;;;;5013858;28;20212;-48
2022/12/30 12:44:08;;;;;;;4.50;2.10;;;;;;;;;;5013852;28;20300;-47
2022/12/30 12:46:48;;;;;;;5.07;1.90;;;;;;;;;;5013344;28;20201;-47
2022/12/30 12:49:22;;;;;;;5.87;2.30;;;;;;;;;;5013414;28;20197;-48
2022/12/30 12:51:55;;;;;;;5.50;2.00;;;;;;;;;;5013306;28;20618;-47
2022/12/30 12:54:33;;;;;;;5.23;2.20;;;;;;;;;;5013450;28;20208;-48
2022/12/30 12:57:11;;;;;;;4.57;2.10;;;;;;;;;;5013231;28;20232;-48
2022/12/30 12:59:45;;;;;;;6.13;2.17;;;;;;;;;;5013462;28;20198;-47
2022/12/30 13:02:21;;;;;;;6.87;1.93;;;;;;;;;;5013291;28;20201;-47
2022/12/30 13:04:54;;;;;;;8.63;2.07;;;;;;;;;;5013037;28;20197;-48
2022/12/30 13:07:29;;;;;;;6.40;2.67;;;;;;;;;;5012574;28;20201;-48
2022/12/30 13:10:10;;;;;;;4.20;2.00;;;;;;;;;;5013112;28;20247;-48
2022/12/30 13:12:41;;;;;;;5.57;2.30;;;;;;;;;;5012950;28;20678;-48
2022/12/30 13:15:18;;;;;;;5.60;2.20;;;;;;;;;;5012996;28;20645;-47
2022/12/30 13:17:45;;;;;;;6.60;2.03;;;;;;;;;;5012895;28;20252;-47
2022/12/30 13:20:14;;;;;;;8.13;2.70;;;;;;;;;;5012871;28;20206;-47
2022/12/30 13:22:40;;;;;;;3.70;1.80;;;;;;;;;;5012716;28;20201;-47
2022/12/30 13:25:13;;;;;;;4.40;1.83;;;;;;;;;;5012589;28;20197;-47
2022/12/30 13:27:41;;;;;;;2.97;1.83;;;;;;;;;;5012698;28;20229;-48
2022/12/30 13:30:12;;;;;;;4.17;1.90;;;;;;;;;;5012674;28;20284;-48
2022/12/30 13:32:41;;;;;;;7.83;2.33;;;;;;;;;;5012654;28;20217;-47
2022/12/30 13:35:21;;;;;;;7.00;2.07;;;;;;;;;;5012565;28;20325;-47
2022/12/30 13:37:52;;;;;;;4.60;1.83;;;;;;;;;;5012573;28;20198;-47
2022/12/30 13:40:20;;;;;;;4.43;1.80;;;;;;;;;;5012591;28;20238;-47
2022/12/30 13:42:53;;;;;;;3.87;1.93;;;;;;;;;;5012544;28;20201;-47
2022/12/30 13:45:24;;;;;;;4.37;2.03;;;;;;;;;;5012566;28;20190;-47
2022/12/30 13:47:56;;;;;;;4.87;2.40;;;;;;;;;;5012394;28;20197;-48
2022/12/30 13:50:24;;;;;;;4.67;2.00;;;;;;;;;;5012526;28;20223;-47
2022/12/30 13:52:51;;;;;;;5.73;1.97;;;;;;;;;;5012239;28;20201;-47
2022/12/30 13:55:19;;;;;;;4.33;1.73;;;;;;;;;;5012465;28;20237;-48
2022/12/30 13:57:46;;;;;;;6.57;1.90;;;;;;;;;;5012273;28;20201;-47
2022/12/30 14:00:24;;;;;;;3.20;1.50;;;;;;;;;;5012647;28;20205;-47
2022/12/30 14:02:57;;;;;;;4.47;1.60;;;;;;;;;;5012341;28;20211;-48
2022/12/30 14:05:48;;;;;;;2.13;1.50;;;;;;;;;;5012290;28;20606;-47
2022/12/30 14:08:28;;;;;;;4.00;1.43;;;;;;;;;;5011997;28;20296;-48
2022/12/30 14:11:05;;;;;;;2.17;1.50;;;;;;;;;;4995697;28;20220;-47
2022/12/30 14:13:33;;;;;;;5.27;1.50;;;;;;;;;;5010042;28;20698;-47
2022/12/30 14:16:00;;;;;;;6.37;1.87;;;;;;;;;;5011888;28;20225;-47
2022/12/30 14:18:32;;;;;;;3.60;1.70;;;;;;;;;;5012016;28;20225;-47
2022/12/30 14:21:00;;;;;;;5.77;1.73;;;;;;;;;;5012073;28;20532;-48
2022/12/30 14:23:37;;;;;;;7.23;1.70;;;;;;;;;;5010067;28;20202;-47
2022/12/30 14:26:23;;;;;;;4.60;1.90;;;;;;;;;;5009475;28;20194;-47
2022/12/30 14:28:50;;;;;;;4.67;1.73;;;;;;;;;;5011471;28;20211;-47
2022/12/30 14:31:23;;;;;;;5.53;1.90;;;;;;;;;;5011488;28;20237;-47
2022/12/30 14:33:50;;;;;;;5.27;1.90;;;;;;;;;;5011355;28;20240;-48
2022/12/30 14:36:18;;;;;;;2.87;1.60;;;;;;;;;;5011467;28;20225;-48
2022/12/30 14:38:45;;;;;;;4.13;1.97;;;;;;;;;;5009812;28;20561;-48
2022/12/30 14:41:13;;;;;;;5.47;1.97;;;;;;;;;;5010912;28;20332;-48
2022/12/30 14:43:42;;;;;;;2.73;1.50;;;;;;;;;;5011131;28;20197;-48
2022/12/30 14:46:36;;;;;;;6.03;1.87;;;;;;;;;;5011096;28;20193;-46
2022/12/30 14:49:04;;;;;;;5.13;1.60;;;;;;;;;;5011382;28;20197;-48
2022/12/30 14:51:30;;;;;;;3.33;1.63;;;;;;;;;;5011684;28;20197;-47
2022/12/30 14:53:56;;;;;;;4.13;1.80;;;;;;;;;;5011468;28;20205;-47
2022/12/30 14:56:24;;;;;;;3.10;1.90;;;;;;;;;;5011537;28;20256;-48
2022/12/30 14:58:50;;;;;;;3.30;1.70;;;;;;;;;;5011575;28;20193;-48
2022/12/30 15:01:18;;;;;;;5.57;1.83;;;;;;;;;;5011362;28;20203;-47
2022/12/30 15:03:44;;;;;;;3.90;1.70;;;;;;;;;;5011329;28;20613;-48
2022/12/30 15:06:14;;;;;;;3.40;1.30;;;;;;;;;;5009427;28;20201;-47
2022/12/30 15:08:41;;;;;;;5.07;1.80;;;;;;;;;;5010742;28;20213;-48
2022/12/30 15:11:08;;;;;;;5.90;1.80;;;;;;;;;;5010844;28;20252;-48
2022/12/30 15:13:37;;;;;;;2.73;1.60;;;;;;;;;;5010843;28;20208;-48
2022/12/30 15:16:05;;;;;;;6.43;1.80;;;;;;;;;;5010856;28;20239;-47
2022/12/30 15:18:33;;;;;;;2.33;1.80;;;;;;;;;;5011119;28;20198;-48
2022/12/30 15:20:59;;;;;;;3.87;1.83;;;;;;;;;;5010895;28;20197;-48
2022/12/30 15:23:29;;;;;;;6.30;2.00;;;;;;;;;;5011087;28;20317;-48
2022/12/30 15:25:59;;;;;;;2.80;1.60;;;;;;;;;;5011006;28;20205;-48
2022/12/30 15:28:25;;;;;;;4.70;1.90;;;;;;;;;;5011098;28;20208;-48
2022/12/30 15:30:51;;;;;;;6.73;1.80;;;;;;;;;;5012609;28;20563;-48
2022/12/30 15:33:17;;;;;;;3.43;1.70;;;;;;;;;;5014541;28;20856;-48
2022/12/30 15:35:44;;;;;;;4.17;1.70;;;;;;;;;;5014497;28;20324;-48
2022/12/30 15:38:11;;;;;;;4.20;1.73;;;;;;;;;;5015060;28;20286;-47